createdAt,value
2016-12-29T00:00:40.030Z,1030.43
2016-12-29T00:01:50.527Z,1030.42
2016-12-29T00:03:01.412Z,1030.4
2016-12-29T00:04:12.750Z,1030.35
2016-12-29T00:05:24.291Z,1030.37
2016-12-29T00:06:35.180Z,1030.37
2016-12-29T00:07:45.649Z,1030.36
2016-12-29T00:08:56.542Z,1030.36
2016-12-29T00:10:07.479Z,1030.36
2016-12-29T00:11:18.425Z,1030.33
2016-12-29T00:12:29.330Z,1030.31
2016-12-29T00:13:40.223Z,1030.29
2016-12-29T00:14:51.540Z,1030.26
2016-12-29T00:16:02.441Z,1030.28
2016-12-29T00:17:13.390Z,1030.32
2016-12-29T00:18:24.708Z,1030.35
2016-12-29T00:19:35.617Z,1030.28
2016-12-29T00:20:46.942Z,1030.31
2016-12-29T00:21:57.831Z,1030.26
2016-12-29T00:23:08.876Z,1030.27
2016-12-29T00:24:20.193Z,1030.29
2016-12-29T00:25:31.523Z,1030.32
2016-12-29T00:26:42.452Z,1030.3
2016-12-29T00:27:53.773Z,1030.3
2016-12-29T00:29:04.714Z,1030.32
2016-12-29T00:30:16.039Z,1030.33
2016-12-29T00:31:27.360Z,1030.35
2016-12-29T00:32:37.826Z,1030.34
2016-12-29T00:33:48.723Z,1030.4
2016-12-29T00:35:00.252Z,1030.4
2016-12-29T00:36:11.573Z,1030.39
2016-12-29T00:37:22.471Z,1030.39
2016-12-29T00:38:33.796Z,1030.39
2016-12-29T00:39:45.125Z,1030.38
2016-12-29T00:40:56.066Z,1030.38
2016-12-29T00:42:06.963Z,1030.42
2016-12-29T00:43:17.853Z,1030.47
2016-12-29T00:44:28.745Z,1030.45
2016-12-29T00:45:39.639Z,1030.47
2016-12-29T00:46:50.584Z,1030.44
2016-12-29T00:48:01.897Z,1030.45
2016-12-29T00:49:13.218Z,1030.41
2016-12-29T00:50:24.536Z,1030.44
2016-12-29T00:51:35.857Z,1030.45
2016-12-29T00:52:46.802Z,1030.4
2016-12-29T00:53:57.721Z,1030.44
2016-12-29T00:55:08.616Z,1030.43
2016-12-29T00:56:19.933Z,1030.39
2016-12-29T00:57:30.827Z,1030.45
2016-12-29T00:58:41.784Z,1030.41
2016-12-29T00:59:53.105Z,1030.43
2016-12-29T01:01:03.998Z,1030.45
2016-12-29T01:02:14.464Z,1030.45
2016-12-29T01:03:25.361Z,1030.46
2016-12-29T01:04:36.302Z,1030.45
2016-12-29T01:05:47.199Z,1030.42
2016-12-29T01:06:58.104Z,1030.43
2016-12-29T01:08:09.002Z,1030.42
2016-12-29T01:09:19.891Z,1030.43
2016-12-29T01:10:30.844Z,1030.46
2016-12-29T01:11:41.745Z,1030.41
2016-12-29T01:12:52.647Z,1030.43
2016-12-29T01:14:03.547Z,1030.42
2016-12-29T01:15:14.877Z,1030.44
2016-12-29T01:16:25.826Z,1030.45
2016-12-29T01:17:37.147Z,1030.47
2016-12-29T01:18:48.044Z,1030.49
2016-12-29T01:19:58.934Z,1030.49
2016-12-29T01:21:09.831Z,1030.5
2016-12-29T01:22:21.204Z,1030.45
2016-12-29T01:23:32.525Z,1030.48
2016-12-29T01:24:43.418Z,1030.44
2016-12-29T01:25:53.884Z,1030.45
2016-12-29T01:27:05.209Z,1030.43
2016-12-29T01:28:16.162Z,1030.4
2016-12-29T01:29:27.059Z,1030.37
2016-12-29T01:30:38.384Z,1030.37
2016-12-29T01:31:49.281Z,1030.34
2016-12-29T01:33:00.175Z,1030.38
2016-12-29T01:34:11.556Z,1030.43
2016-12-29T01:35:22.449Z,1030.41
2016-12-29T01:36:33.342Z,1030.46
2016-12-29T01:37:44.239Z,1030.46
2016-12-29T01:38:55.140Z,1030.49
2016-12-29T01:40:06.094Z,1030.49
2016-12-29T01:41:17.463Z,1030.48
2016-12-29T01:42:28.387Z,1030.48
2016-12-29T01:43:39.701Z,1030.5
2016-12-29T01:44:50.602Z,1030.49
2016-12-29T01:46:02.000Z,1030.46
2016-12-29T01:47:13.325Z,1030.44
2016-12-29T01:48:24.214Z,1030.4
2016-12-29T01:49:35.107Z,1030.39
2016-12-29T01:50:46.429Z,1030.39
2016-12-29T01:51:57.381Z,1030.35
2016-12-29T01:53:08.275Z,1030.37
2016-12-29T01:54:19.600Z,1030.38
2016-12-29T01:55:30.494Z,1030.37
2016-12-29T01:56:41.397Z,1030.35
2016-12-29T01:57:52.771Z,1030.4
2016-12-29T01:59:03.669Z,1030.35
2016-12-29T02:00:14.585Z,1030.37
2016-12-29T02:01:25.483Z,1030.36
2016-12-29T02:02:36.808Z,1030.35
2016-12-29T02:03:47.758Z,1030.31
2016-12-29T02:04:58.667Z,1030.34
2016-12-29T02:06:09.564Z,1030.35
2016-12-29T02:07:20.884Z,1030.38
2016-12-29T02:08:31.778Z,1030.35
2016-12-29T02:09:43.300Z,1030.35
2016-12-29T02:10:54.192Z,1030.36
2016-12-29T02:12:05.518Z,1030.34
2016-12-29T02:13:16.839Z,1030.31
2016-12-29T02:14:27.732Z,1030.31
2016-12-29T02:15:38.681Z,1030.31
2016-12-29T02:16:50.022Z,1030.26
2016-12-29T02:18:01.344Z,1030.26
2016-12-29T02:19:12.245Z,1030.26
2016-12-29T02:20:23.138Z,1030.23
2016-12-29T02:21:34.111Z,1030.25
2016-12-29T02:22:44.580Z,1030.23
2016-12-29T02:23:55.905Z,1030.24
2016-12-29T02:25:06.803Z,1030.24
2016-12-29T02:26:18.124Z,1030.24
2016-12-29T02:27:29.097Z,1030.22
2016-12-29T02:28:39.991Z,1030.24
2016-12-29T02:29:50.460Z,1030.21
2016-12-29T02:31:01.789Z,1030.18
2016-12-29T02:32:13.126Z,1030.11
2016-12-29T02:33:24.071Z,1030.18
2016-12-29T02:34:35.392Z,1030.13
2016-12-29T02:35:46.713Z,1030.12
2016-12-29T02:36:58.030Z,1030.14
2016-12-29T02:38:09.344Z,1030.09
2016-12-29T02:39:20.285Z,1030.1
2016-12-29T02:40:31.612Z,1030.08
2016-12-29T02:41:42.511Z,1030.05
2016-12-29T02:42:53.397Z,1030.09
2016-12-29T02:44:04.718Z,1030.09
2016-12-29T02:45:15.235Z,1030.13
2016-12-29T02:46:26.124Z,1030.13
2016-12-29T02:47:37.017Z,1030.09
2016-12-29T02:48:47.907Z,1030.1
2016-12-29T02:49:59.232Z,1030.06
2016-12-29T02:51:10.329Z,1030.05
2016-12-29T02:52:21.226Z,1030.01
2016-12-29T02:53:32.120Z,1030.02
2016-12-29T02:54:43.445Z,1030.04
2016-12-29T02:55:54.339Z,1029.95
2016-12-29T02:57:05.291Z,1030
2016-12-29T02:58:16.610Z,1029.97
2016-12-29T02:59:27.506Z,1029.99
2016-12-29T03:00:38.407Z,1029.98
2016-12-29T03:01:49.732Z,1030
2016-12-29T03:03:00.685Z,1030.01
2016-12-29T03:04:12.014Z,1030.01
2016-12-29T03:05:22.911Z,1030.02
2016-12-29T03:06:34.237Z,1030.04
2016-12-29T03:07:45.138Z,1030.02
2016-12-29T03:08:56.511Z,1030.04
2016-12-29T03:10:07.404Z,1030.07
2016-12-29T03:11:18.726Z,1030.02
2016-12-29T03:12:30.054Z,1030.05
2016-12-29T03:13:40.981Z,1030.14
2016-12-29T03:14:51.497Z,1030.17
2016-12-29T03:16:02.835Z,1030.15
2016-12-29T03:17:14.156Z,1030.16
2016-12-29T03:18:25.053Z,1030.15
2016-12-29T03:19:35.954Z,1030.09
2016-12-29T03:20:47.319Z,1030.07
2016-12-29T03:21:58.213Z,1030.13
2016-12-29T03:23:09.538Z,1030.13
2016-12-29T03:24:20.435Z,1030.18
2016-12-29T03:25:31.329Z,1030.15
2016-12-29T03:26:42.717Z,1030.17
2016-12-29T03:27:54.039Z,1030.19
2016-12-29T03:29:05.356Z,1030.13
2016-12-29T03:30:16.249Z,1030.1
2016-12-29T03:31:27.574Z,1030.09
2016-12-29T03:32:38.951Z,1030.07
2016-12-29T03:33:49.848Z,1030.05
2016-12-29T03:35:01.170Z,1030.06
2016-12-29T03:36:12.499Z,1030.05
2016-12-29T03:37:23.392Z,1030.02
2016-12-29T03:38:34.825Z,1030.01
2016-12-29T03:39:45.726Z,1030.01
2016-12-29T03:40:56.627Z,1030.01
2016-12-29T03:42:07.941Z,1029.97
2016-12-29T03:43:18.838Z,1029.93
2016-12-29T03:44:29.791Z,1029.88
2016-12-29T03:45:41.120Z,1029.91
2016-12-29T03:46:52.450Z,1029.89
2016-12-29T03:48:03.779Z,1029.92
2016-12-29T03:49:14.672Z,1029.93
2016-12-29T03:50:26.042Z,1029.93
2016-12-29T03:51:37.359Z,1029.93
2016-12-29T03:52:47.827Z,1029.95
2016-12-29T03:53:59.149Z,1029.96
2016-12-29T03:55:10.054Z,1029.97
2016-12-29T03:56:21.004Z,1029.98
2016-12-29T03:57:32.325Z,1029.99
2016-12-29T03:58:43.221Z,1030
2016-12-29T03:59:54.147Z,1030
2016-12-29T04:01:05.468Z,1029.98
2016-12-29T04:02:16.893Z,1029.97
2016-12-29T04:03:28.227Z,1030.02
2016-12-29T04:04:39.559Z,1029.99
2016-12-29T04:05:50.457Z,1029.93
2016-12-29T04:07:01.358Z,1029.97
2016-12-29T04:08:12.355Z,1030.02
2016-12-29T04:09:23.244Z,1030.01
2016-12-29T04:10:34.134Z,1030.02
2016-12-29T04:11:45.035Z,1030.05
2016-12-29T04:12:55.932Z,1030.05
2016-12-29T04:14:06.977Z,1030.06
2016-12-29T04:15:17.870Z,1030.08
2016-12-29T04:16:29.191Z,1030.09
2016-12-29T04:17:40.085Z,1030.04
2016-12-29T04:18:51.006Z,1030.04
2016-12-29T04:20:01.947Z,1030.05
2016-12-29T04:21:12.848Z,1030.03
2016-12-29T04:22:24.173Z,1030.04
2016-12-29T04:23:35.067Z,1030.02
2016-12-29T04:24:46.400Z,1030
2016-12-29T04:25:57.376Z,1030.02
2016-12-29T04:27:08.702Z,1030.06
2016-12-29T04:28:20.023Z,1030.05
2016-12-29T04:29:30.513Z,1030.07
2016-12-29T04:30:41.418Z,1030.09
2016-12-29T04:31:52.799Z,1030.1
2016-12-29T04:33:04.116Z,1030.09
2016-12-29T04:34:15.014Z,1030.11
2016-12-29T04:35:26.335Z,1030.12
2016-12-29T04:36:37.232Z,1030.12
2016-12-29T04:37:48.329Z,1030.14
2016-12-29T04:38:59.226Z,1030.15
2016-12-29T04:40:10.123Z,1030.16
2016-12-29T04:41:21.445Z,1030.15
2016-12-29T04:42:31.914Z,1030.17
2016-12-29T04:43:42.883Z,1030.14
2016-12-29T04:44:53.776Z,1030.12
2016-12-29T04:46:04.670Z,1030.09
2016-12-29T04:47:15.130Z,1030.1
2016-12-29T04:48:26.444Z,1030.05
2016-12-29T04:49:37.397Z,1030.02
2016-12-29T04:50:48.293Z,1030.04
2016-12-29T04:51:59.619Z,1030.04
2016-12-29T04:53:10.945Z,1030.01
2016-12-29T04:54:21.850Z,1030.02
2016-12-29T04:55:32.791Z,1030.07
2016-12-29T04:56:44.120Z,1030.03
2016-12-29T04:57:54.593Z,1030.04
2016-12-29T04:59:05.911Z,1030.04
2016-12-29T05:00:17.236Z,1030.02
2016-12-29T05:01:28.177Z,1030.02
2016-12-29T05:02:39.498Z,1030.02
2016-12-29T05:03:50.827Z,1029.98
2016-12-29T05:05:01.728Z,1030.01
2016-12-29T05:06:13.070Z,1030.01
2016-12-29T05:07:23.635Z,1030.06
2016-12-29T05:08:34.535Z,1030.05
2016-12-29T05:09:45.425Z,1030.11
2016-12-29T05:10:56.754Z,1030.11
2016-12-29T05:12:08.095Z,1030.11
2016-12-29T05:13:19.500Z,1030.07
2016-12-29T05:14:30.813Z,1030.09
2016-12-29T05:15:42.143Z,1030.06
2016-12-29T05:16:53.036Z,1030.07
2016-12-29T05:18:04.357Z,1030.06
2016-12-29T05:19:15.315Z,1030.03
2016-12-29T05:20:26.204Z,1030.01
2016-12-29T05:21:37.553Z,1029.99
2016-12-29T05:22:48.878Z,1029.92
2016-12-29T05:23:59.771Z,1029.93
2016-12-29T05:25:10.716Z,1029.96
2016-12-29T05:26:22.054Z,1029.98
2016-12-29T05:27:32.952Z,1030.02
2016-12-29T05:28:44.270Z,1030.01
2016-12-29T05:29:55.167Z,1030.01
2016-12-29T05:31:06.211Z,1030.02
2016-12-29T05:32:17.112Z,1030.01
2016-12-29T05:33:28.433Z,1029.99
2016-12-29T05:34:39.330Z,1029.98
2016-12-29T05:35:50.231Z,1029.95
2016-12-29T05:37:01.596Z,1029.96
2016-12-29T05:38:12.057Z,1029.92
2016-12-29T05:39:23.379Z,1029.93
2016-12-29T05:40:34.296Z,1029.85
2016-12-29T05:41:45.213Z,1029.85
2016-12-29T05:42:56.166Z,1029.82
2016-12-29T05:44:07.063Z,1029.84
2016-12-29T05:45:18.389Z,1029.83
2016-12-29T05:46:29.734Z,1029.87
2016-12-29T05:47:40.635Z,1029.88
2016-12-29T05:48:52.005Z,1029.88
2016-12-29T05:50:02.902Z,1029.81
2016-12-29T05:51:14.227Z,1029.83
2016-12-29T05:52:25.552Z,1029.8
2016-12-29T05:53:36.453Z,1029.8
2016-12-29T05:54:47.822Z,1029.78
2016-12-29T05:55:59.151Z,1029.76
2016-12-29T05:57:10.041Z,1029.76
2016-12-29T05:58:21.370Z,1029.79
2016-12-29T05:59:32.691Z,1029.8
2016-12-29T06:00:43.212Z,1029.79
2016-12-29T06:01:54.538Z,1029.84
2016-12-29T06:03:05.859Z,1029.92
2016-12-29T06:04:16.756Z,1029.92
2016-12-29T06:05:28.077Z,1029.92
2016-12-29T06:06:39.022Z,1029.84
2016-12-29T06:07:49.946Z,1029.9
2016-12-29T06:09:01.277Z,1029.89
2016-12-29T06:10:12.169Z,1029.91
2016-12-29T06:11:23.483Z,1029.88
2016-12-29T06:12:34.428Z,1029.92
2016-12-29T06:13:45.749Z,1029.98
2016-12-29T06:14:57.066Z,1029.95
2016-12-29T06:16:08.380Z,1029.94
2016-12-29T06:17:18.849Z,1029.95
2016-12-29T06:18:29.786Z,1029.97
2016-12-29T06:19:41.107Z,1029.91
2016-12-29T06:20:52.005Z,1029.95
2016-12-29T06:22:03.377Z,1029.92
2016-12-29T06:23:13.843Z,1029.93
2016-12-29T06:24:25.208Z,1029.9
2016-12-29T06:25:36.121Z,1029.94
2016-12-29T06:26:47.019Z,1029.95
2016-12-29T06:27:58.340Z,1029.96
2016-12-29T06:29:09.656Z,1029.95
2016-12-29T06:30:21.026Z,1029.92
2016-12-29T06:31:31.923Z,1029.94
2016-12-29T06:32:42.816Z,1029.88
2016-12-29T06:33:53.297Z,1029.9
2016-12-29T06:35:04.623Z,1029.91
2016-12-29T06:36:16.000Z,1029.94
2016-12-29T06:37:26.897Z,1029.94
2016-12-29T06:38:37.814Z,1029.96
2016-12-29T06:39:48.715Z,1029.97
2016-12-29T06:41:00.037Z,1029.96
2016-12-29T06:42:11.410Z,1029.93
2016-12-29T06:43:22.299Z,1029.94
2016-12-29T06:44:33.616Z,1029.9
2016-12-29T06:45:44.521Z,1029.94
2016-12-29T06:46:55.423Z,1029.96
2016-12-29T06:48:06.820Z,1029.95
2016-12-29T06:49:18.145Z,1029.93
2016-12-29T06:50:29.466Z,1029.95
2016-12-29T06:51:40.796Z,1029.97
2016-12-29T06:52:51.692Z,1029.97
2016-12-29T06:54:02.638Z,1029.97
2016-12-29T06:55:13.543Z,1029.99
2016-12-29T06:56:24.868Z,1029.95
2016-12-29T06:57:36.185Z,1029.97
2016-12-29T06:58:47.087Z,1029.97
2016-12-29T06:59:58.040Z,1029.98
2016-12-29T07:01:08.937Z,1030.02
2016-12-29T07:02:20.262Z,1030
2016-12-29T07:03:31.163Z,1030.04
2016-12-29T07:04:42.061Z,1030.06
2016-12-29T07:05:53.434Z,1030.09
2016-12-29T07:07:04.755Z,1030.1
2016-12-29T07:08:16.072Z,1030.06
2016-12-29T07:09:27.385Z,1030.09
2016-12-29T07:10:38.706Z,1030.05
2016-12-29T07:11:49.659Z,1030.04
2016-12-29T07:13:00.977Z,1030.02
2016-12-29T07:14:11.866Z,1030
2016-12-29T07:15:23.219Z,1030
2016-12-29T07:16:34.532Z,1030.02
2016-12-29T07:17:45.578Z,1029.98
2016-12-29T07:18:56.479Z,1029.99
2016-12-29T07:20:07.800Z,1030.02
2016-12-29T07:21:18.265Z,1030.02
2016-12-29T07:22:29.158Z,1030.01
2016-12-29T07:23:40.628Z,1030.02
2016-12-29T07:24:51.949Z,1029.98
2016-12-29T07:26:02.834Z,1029.97
2016-12-29T07:27:14.151Z,1029.97
2016-12-29T07:28:25.048Z,1029.97
2016-12-29T07:29:36.002Z,1030.04
2016-12-29T07:30:47.322Z,1030.02
2016-12-29T07:31:58.652Z,1030.01
2016-12-29T07:33:09.549Z,1030.02
2016-12-29T07:34:20.866Z,1030.05
2016-12-29T07:35:32.231Z,1030
2016-12-29T07:36:43.561Z,1030.01
2016-12-29T07:37:54.886Z,1030.05
2016-12-29T07:39:05.783Z,1030.03
2016-12-29T07:40:16.680Z,1030.05
2016-12-29T07:41:28.049Z,1030.06
2016-12-29T07:42:38.951Z,1030.07
2016-12-29T07:43:49.847Z,1030.06
2016-12-29T07:45:00.745Z,1030.06
2016-12-29T07:46:12.062Z,1030.07
2016-12-29T07:47:23.011Z,1030.03
2016-12-29T07:48:33.909Z,1030.01
2016-12-29T07:49:45.242Z,1029.99
2016-12-29T07:50:56.155Z,1030.12
2016-12-29T07:52:07.048Z,1030.07
2016-12-29T07:53:18.573Z,1030.1
2016-12-29T07:54:29.890Z,1030.09
2016-12-29T07:55:41.208Z,1030.08
2016-12-29T07:56:52.109Z,1030.02
2016-12-29T07:58:02.998Z,1030.04
2016-12-29T07:59:14.367Z,1030.04
2016-12-29T08:00:25.256Z,1029.97
2016-12-29T08:01:36.146Z,1030.02
2016-12-29T08:02:47.039Z,1030.02
2016-12-29T08:03:58.364Z,1029.95
2016-12-29T08:05:09.317Z,1029.99
2016-12-29T08:06:20.214Z,1030.01
2016-12-29T08:07:31.119Z,1029.97
2016-12-29T08:08:42.445Z,1029.95
2016-12-29T08:09:53.759Z,1029.95
2016-12-29T08:11:04.703Z,1029.98
2016-12-29T08:12:16.024Z,1029.92
2016-12-29T08:13:27.341Z,1029.91
2016-12-29T08:14:38.694Z,1029.92
2016-12-29T08:15:49.624Z,1029.91
2016-12-29T08:17:01.009Z,1029.93
2016-12-29T08:18:11.918Z,1029.92
2016-12-29T08:19:22.823Z,1029.94
2016-12-29T08:20:34.145Z,1029.92
2016-12-29T08:21:45.050Z,1029.92
2016-12-29T08:22:56.431Z,1029.93
2016-12-29T08:24:07.320Z,1029.86
2016-12-29T08:25:18.637Z,1029.88
2016-12-29T08:26:29.535Z,1029.87
2016-12-29T08:27:40.860Z,1029.87
2016-12-29T08:28:52.385Z,1029.84
2016-12-29T08:30:03.298Z,1029.86
2016-12-29T08:31:14.203Z,1029.82
2016-12-29T08:32:25.101Z,1029.85
2016-12-29T08:33:36.414Z,1029.84
2016-12-29T08:34:47.786Z,1029.8
2016-12-29T08:35:59.104Z,1029.79
2016-12-29T08:37:10.429Z,1029.74
2016-12-29T08:38:20.890Z,1029.75
2016-12-29T08:39:32.216Z,1029.78
2016-12-29T08:40:43.161Z,1029.82
2016-12-29T08:41:54.486Z,1029.8
2016-12-29T08:43:05.807Z,1029.81
2016-12-29T08:44:16.701Z,1029.79
2016-12-29T08:45:28.033Z,1029.81
2016-12-29T08:46:39.412Z,1029.81
2016-12-29T08:47:50.308Z,1029.8
2016-12-29T08:49:01.629Z,1029.77
2016-12-29T08:50:12.951Z,1029.76
2016-12-29T08:51:24.268Z,1029.76
2016-12-29T08:52:35.229Z,1029.74
2016-12-29T08:53:46.546Z,1029.76
2016-12-29T08:54:57.435Z,1029.74
2016-12-29T08:56:08.756Z,1029.75
2016-12-29T08:57:20.077Z,1029.72
2016-12-29T08:58:31.023Z,1029.77
2016-12-29T08:59:42.344Z,1029.73
2016-12-29T09:00:53.673Z,1029.76
2016-12-29T09:02:04.570Z,1029.75
2016-12-29T09:03:15.467Z,1029.76
2016-12-29T09:04:26.841Z,1029.8
2016-12-29T09:05:37.742Z,1029.78
2016-12-29T09:06:48.655Z,1029.78
2016-12-29T09:07:59.540Z,1029.75
2016-12-29T09:09:10.441Z,1029.74
2016-12-29T09:10:21.438Z,1029.74
2016-12-29T09:11:32.765Z,1029.75
2016-12-29T09:12:43.661Z,1029.72
2016-12-29T09:13:54.550Z,1029.7
2016-12-29T09:15:05.867Z,1029.71
2016-12-29T09:16:16.816Z,1029.69
2016-12-29T09:17:28.133Z,1029.7
2016-12-29T09:18:39.035Z,1029.72
2016-12-29T09:19:50.360Z,1029.72
2016-12-29T09:21:01.253Z,1029.7
2016-12-29T09:22:12.194Z,1029.68
2016-12-29T09:23:23.095Z,1029.68
2016-12-29T09:24:34.421Z,1029.66
2016-12-29T09:25:45.746Z,1029.65
2016-12-29T09:26:56.639Z,1029.61
2016-12-29T09:28:07.592Z,1029.63
2016-12-29T09:29:18.917Z,1029.62
2016-12-29T09:30:29.827Z,1029.61
2016-12-29T09:31:40.720Z,1029.61
2016-12-29T09:32:52.038Z,1029.59
2016-12-29T09:34:02.986Z,1029.56
2016-12-29T09:35:14.299Z,1029.57
2016-12-29T09:36:25.181Z,1029.57
2016-12-29T09:37:36.498Z,1029.56
2016-12-29T09:38:47.395Z,1029.57
2016-12-29T09:39:58.340Z,1029.65
2016-12-29T09:41:09.657Z,1029.62
2016-12-29T09:42:20.554Z,1029.6
2016-12-29T09:43:31.872Z,1029.59
2016-12-29T09:44:42.797Z,1029.56
2016-12-29T09:45:53.734Z,1029.57
2016-12-29T09:47:04.627Z,1029.51
2016-12-29T09:48:15.940Z,1029.5
2016-12-29T09:49:26.850Z,1029.51
2016-12-29T09:50:37.747Z,1029.51
2016-12-29T09:51:49.116Z,1029.5
2016-12-29T09:53:00.009Z,1029.43
2016-12-29T09:54:11.330Z,1029.45
2016-12-29T09:55:22.228Z,1029.44
2016-12-29T09:56:33.129Z,1029.46
2016-12-29T09:57:44.498Z,1029.45
2016-12-29T09:58:55.819Z,1029.45
2016-12-29T10:00:07.148Z,1029.46
2016-12-29T10:01:18.053Z,1029.4
2016-12-29T10:02:29.383Z,1029.43
2016-12-29T10:03:40.792Z,1029.41
2016-12-29T10:04:52.113Z,1029.42
2016-12-29T10:06:03.011Z,1029.45
2016-12-29T10:07:13.903Z,1029.45
2016-12-29T10:08:24.377Z,1029.42
2016-12-29T10:09:35.314Z,1029.4
2016-12-29T10:10:46.631Z,1029.4
2016-12-29T10:11:57.524Z,1029.38
2016-12-29T10:13:08.418Z,1029.39
2016-12-29T10:14:19.739Z,1029.33
2016-12-29T10:15:30.700Z,1029.34
2016-12-29T10:16:41.597Z,1029.38
2016-12-29T10:17:52.918Z,1029.35
2016-12-29T10:19:04.247Z,1029.36
2016-12-29T10:20:15.153Z,1029.41
2016-12-29T10:21:26.525Z,1029.38
2016-12-29T10:22:37.851Z,1029.39
2016-12-29T10:23:49.172Z,1029.44
2016-12-29T10:25:00.491Z,1029.45
2016-12-29T10:26:11.839Z,1029.43
2016-12-29T10:27:23.216Z,1029.43
2016-12-29T10:28:34.545Z,1029.45
2016-12-29T10:29:45.006Z,1029.47
2016-12-29T10:30:56.325Z,1029.42
2016-12-29T10:32:07.645Z,1029.46
2016-12-29T10:33:18.594Z,1029.41
2016-12-29T10:34:29.915Z,1029.41
2016-12-29T10:35:41.265Z,1029.43
2016-12-29T10:36:52.169Z,1029.36
2016-12-29T10:38:03.515Z,1029.38
2016-12-29T10:39:14.456Z,1029.4
2016-12-29T10:40:25.345Z,1029.37
2016-12-29T10:41:36.670Z,1029.35
2016-12-29T10:42:47.563Z,1029.3
2016-12-29T10:43:58.880Z,1029.29
2016-12-29T10:45:10.258Z,1029.32
2016-12-29T10:46:21.583Z,1029.3
2016-12-29T10:47:32.904Z,1029.3
2016-12-29T10:48:43.814Z,1029.28
2016-12-29T10:49:54.703Z,1029.26
2016-12-29T10:51:06.079Z,1029.25
2016-12-29T10:52:17.403Z,1029.26
2016-12-29T10:53:28.298Z,1029.25
2016-12-29T10:54:39.623Z,1029.27
2016-12-29T10:55:50.516Z,1029.23
2016-12-29T10:57:01.466Z,1029.25
2016-12-29T10:58:12.795Z,1029.21
2016-12-29T10:59:24.120Z,1029.24
2016-12-29T11:00:35.021Z,1029.28
2016-12-29T11:01:45.919Z,1029.28
2016-12-29T11:02:57.296Z,1029.24
2016-12-29T11:04:08.213Z,1029.25
2016-12-29T11:05:19.538Z,1029.23
2016-12-29T11:06:30.439Z,1029.18
2016-12-29T11:07:41.332Z,1029.13
2016-12-29T11:08:52.282Z,1029.08
2016-12-29T11:10:03.181Z,1029.05
2016-12-29T11:11:14.508Z,1029.06
2016-12-29T11:12:25.829Z,1029.09
2016-12-29T11:13:36.722Z,1029.1
2016-12-29T11:14:47.668Z,1029.09
2016-12-29T11:15:58.573Z,1029.02
2016-12-29T11:17:09.902Z,1028.98
2016-12-29T11:18:20.807Z,1028.98
2016-12-29T11:19:31.700Z,1028.97
2016-12-29T11:20:43.069Z,1028.95
2016-12-29T11:21:53.534Z,1028.9
2016-12-29T11:23:04.864Z,1028.91
2016-12-29T11:24:15.757Z,1028.89
2016-12-29T11:25:27.082Z,1028.89
2016-12-29T11:26:38.027Z,1028.86
2016-12-29T11:27:48.937Z,1028.85
2016-12-29T11:29:00.261Z,1028.83
2016-12-29T11:30:11.151Z,1028.83
2016-12-29T11:31:22.480Z,1028.81
2016-12-29T11:32:33.845Z,1028.79
2016-12-29T11:33:45.162Z,1028.79
2016-12-29T11:34:56.060Z,1028.74
2016-12-29T11:36:06.955Z,1028.76
2016-12-29T11:37:18.282Z,1028.73
2016-12-29T11:38:29.224Z,1028.74
2016-12-29T11:39:40.149Z,1028.73
2016-12-29T11:40:51.079Z,1028.72
2016-12-29T11:42:01.975Z,1028.7
2016-12-29T11:43:12.872Z,1028.72
2016-12-29T11:44:24.245Z,1028.7
2016-12-29T11:45:35.574Z,1028.69
2016-12-29T11:46:46.472Z,1028.66
2016-12-29T11:47:57.800Z,1028.63
2016-12-29T11:49:09.129Z,1028.63
2016-12-29T11:50:20.075Z,1028.6
2016-12-29T11:51:30.972Z,1028.61
2016-12-29T11:52:42.297Z,1028.64
2016-12-29T11:53:53.199Z,1028.62
2016-12-29T11:55:04.131Z,1028.61
2016-12-29T11:56:15.501Z,1028.57
2016-12-29T11:57:26.398Z,1028.63
2016-12-29T11:58:37.719Z,1028.62
2016-12-29T11:59:49.048Z,1028.59
2016-12-29T12:00:59.945Z,1028.58
2016-12-29T12:02:11.318Z,1028.53
2016-12-29T12:03:22.211Z,1028.54
2016-12-29T12:04:33.105Z,1028.51
2016-12-29T12:05:44.006Z,1028.5
2016-12-29T12:06:55.351Z,1028.54
2016-12-29T12:08:06.728Z,1028.52
2016-12-29T12:09:18.057Z,1028.53
2016-12-29T12:10:28.991Z,1028.49
2016-12-29T12:11:39.891Z,1028.54
2016-12-29T12:12:50.793Z,1028.5
2016-12-29T12:14:02.162Z,1028.54
2016-12-29T12:15:12.635Z,1028.52
2016-12-29T12:16:23.528Z,1028.53
2016-12-29T12:17:34.425Z,1028.55
2016-12-29T12:18:45.754Z,1028.52
2016-12-29T12:19:56.703Z,1028.51
2016-12-29T12:21:08.028Z,1028.43
2016-12-29T12:22:19.354Z,1028.47
2016-12-29T12:23:30.255Z,1028.42
2016-12-29T12:24:41.156Z,1028.4
2016-12-29T12:25:51.669Z,1028.39
2016-12-29T12:27:02.995Z,1028.38
2016-12-29T12:28:14.323Z,1028.37
2016-12-29T12:29:25.648Z,1028.33
2016-12-29T12:30:36.545Z,1028.26
2016-12-29T12:31:47.062Z,1028.28
2016-12-29T12:32:57.964Z,1028.27
2016-12-29T12:34:08.433Z,1028.27
2016-12-29T12:35:19.750Z,1028.21
2016-12-29T12:36:31.103Z,1028.25
2016-12-29T12:37:42.592Z,1028.22
2016-12-29T12:38:53.496Z,1028.22
2016-12-29T12:40:04.826Z,1028.21
2016-12-29T12:41:15.724Z,1028.21
2016-12-29T12:42:27.045Z,1028.22
2016-12-29T12:43:37.997Z,1028.16
2016-12-29T12:44:48.899Z,1028.19
2016-12-29T12:46:00.220Z,1028.18
2016-12-29T12:47:11.541Z,1028.17
2016-12-29T12:48:22.438Z,1028.2
2016-12-29T12:49:33.819Z,1028.19
2016-12-29T12:50:44.717Z,1028.2
2016-12-29T12:51:56.050Z,1028.2
2016-12-29T12:53:06.942Z,1028.19
2016-12-29T12:54:17.835Z,1028.16
2016-12-29T12:55:28.791Z,1028.14
2016-12-29T12:56:39.694Z,1028.07
2016-12-29T12:57:50.595Z,1028.1
2016-12-29T12:59:01.920Z,1028.08
2016-12-29T13:00:13.249Z,1028.04
2016-12-29T13:01:24.206Z,1028.02
2016-12-29T13:02:35.115Z,1028.03
2016-12-29T13:03:46.432Z,1028.08
2016-12-29T13:04:57.769Z,1028.05
2016-12-29T13:06:08.671Z,1028.05
2016-12-29T13:07:19.615Z,1028.04
2016-12-29T13:08:30.945Z,1028.06
2016-12-29T13:09:42.301Z,1028.08
2016-12-29T13:10:53.626Z,1028.15
2016-12-29T13:12:04.956Z,1028.18
2016-12-29T13:13:16.329Z,1028.15
2016-12-29T13:14:27.226Z,1028.11
2016-12-29T13:15:38.551Z,1028.15
2016-12-29T13:16:49.451Z,1028.1
2016-12-29T13:18:00.350Z,1028.16
2016-12-29T13:19:11.731Z,1028.13
2016-12-29T13:20:23.061Z,1028.14
2016-12-29T13:21:33.965Z,1028.16
2016-12-29T13:22:44.866Z,1028.12
2016-12-29T13:23:55.796Z,1028.12
2016-12-29T13:25:06.749Z,1028.12
2016-12-29T13:26:17.646Z,1028.11
2016-12-29T13:27:28.583Z,1028.14
2016-12-29T13:28:39.489Z,1028.13
2016-12-29T13:29:50.805Z,1028.09
2016-12-29T13:31:01.771Z,1028.09
2016-12-29T13:32:13.092Z,1028.09
2016-12-29T13:33:23.987Z,1028.08
2016-12-29T13:34:35.319Z,1028.08
2016-12-29T13:35:46.644Z,1028.12
2016-12-29T13:36:57.801Z,1028.08
2016-12-29T13:38:09.138Z,1028.12
2016-12-29T13:39:20.471Z,1028.11
2016-12-29T13:40:31.802Z,1028.08
2016-12-29T13:41:42.702Z,1028.1
2016-12-29T13:42:53.651Z,1028.11
2016-12-29T13:44:04.980Z,1028.07
2016-12-29T13:45:16.310Z,1028.03
2016-12-29T13:46:27.638Z,1028.01
2016-12-29T13:47:38.960Z,1027.98
2016-12-29T13:48:49.905Z,1027.98
2016-12-29T13:50:01.230Z,1027.98
2016-12-29T13:51:12.135Z,1028.01
2016-12-29T13:52:23.457Z,1028.01
2016-12-29T13:53:34.785Z,1028.08
2016-12-29T13:54:46.163Z,1028.09
2016-12-29T13:55:57.489Z,1028.08
2016-12-29T13:57:08.397Z,1028.05
2016-12-29T13:58:19.723Z,1028.03
2016-12-29T13:59:31.068Z,1028.02
2016-12-29T14:00:42.437Z,1027.99
2016-12-29T14:01:53.342Z,1027.91
2016-12-29T14:03:04.243Z,1027.92
2016-12-29T14:04:15.565Z,1027.94
2016-12-29T14:05:26.890Z,1027.94
2016-12-29T14:06:37.843Z,1027.92
2016-12-29T14:07:48.744Z,1027.96
2016-12-29T14:09:00.069Z,1027.96
2016-12-29T14:10:10.970Z,1027.96
2016-12-29T14:11:22.287Z,1027.96
2016-12-29T14:12:33.660Z,1028
2016-12-29T14:13:44.986Z,1028
2016-12-29T14:14:55.891Z,1027.97
2016-12-29T14:16:06.796Z,1028.01
2016-12-29T14:17:18.133Z,1028
2016-12-29T14:18:29.510Z,1027.99
2016-12-29T14:19:40.840Z,1028.02
2016-12-29T14:20:51.736Z,1028.02
2016-12-29T14:22:02.638Z,1028.01
2016-12-29T14:23:13.959Z,1028.05